createdAt,value
2018-05-24T00:02:16.608Z,19.42
2018-05-24T00:04:44.714Z,19.40
2018-05-24T00:07:12.829Z,19.40
2018-05-24T00:09:41.034Z,19.47
2018-05-24T00:12:09.198Z,19.45
2018-05-24T00:14:37.356Z,19.46
2018-05-24T00:17:05.463Z,19.52
2018-05-24T00:19:34.173Z,19.54
2018-05-24T00:22:02.305Z,19.57
2018-05-24T00:24:30.441Z,19.56
2018-05-24T00:26:58.546Z,19.59
2018-05-24T00:29:26.671Z,19.58
2018-05-24T00:31:54.816Z,19.52
2018-05-24T00:34:22.929Z,19.54
2018-05-24T00:36:51.045Z,19.59
2018-05-24T00:39:19.279Z,19.58
2018-05-24T00:41:47.405Z,19.53
2018-05-24T00:44:15.509Z,19.55
2018-05-24T00:46:43.622Z,19.54
2018-05-24T00:49:11.739Z,19.56
2018-05-24T00:51:39.853Z,19.47
2018-05-24T00:54:08.000Z,19.44
2018-05-24T00:56:36.112Z,19.39
2018-05-24T00:59:04.215Z,19.32
2018-05-24T01:01:32.369Z,19.38
2018-05-24T01:04:00.455Z,19.39
2018-05-24T01:06:28.625Z,19.36
2018-05-24T01:08:56.742Z,19.33
2018-05-24T01:11:24.865Z,19.32
2018-05-24T01:13:53.004Z,19.36
2018-05-24T01:16:21.116Z,19.30
2018-05-24T01:18:49.241Z,19.21
2018-05-24T01:21:17.362Z,19.19
2018-05-24T01:23:45.479Z,19.25
2018-05-24T01:26:13.587Z,19.22
2018-05-24T01:28:41.709Z,19.19
2018-05-24T01:31:09.875Z,19.13
2018-05-24T01:33:38.010Z,19.02
2018-05-24T01:36:06.124Z,18.96
2018-05-24T01:38:34.264Z,18.98
2018-05-24T01:41:02.381Z,18.84
2018-05-24T01:43:30.489Z,18.91
2018-05-24T01:45:58.621Z,18.94
2018-05-24T01:48:26.725Z,18.92
2018-05-24T01:50:54.834Z,18.90
2018-05-24T01:53:22.966Z,18.94
2018-05-24T01:55:51.602Z,18.84
2018-05-24T01:58:19.732Z,18.80
2018-05-24T02:00:47.851Z,18.71
2018-05-24T02:03:15.969Z,18.71
2018-05-24T02:05:44.081Z,18.74
2018-05-24T02:08:12.387Z,18.81
2018-05-24T02:10:40.500Z,18.74
2018-05-24T02:13:08.640Z,18.81
2018-05-24T02:15:36.769Z,18.83
2018-05-24T02:18:04.885Z,18.79
2018-05-24T02:20:33.005Z,18.81
2018-05-24T02:23:01.152Z,18.82
2018-05-24T02:25:29.265Z,18.77
2018-05-24T02:27:57.395Z,18.83
2018-05-24T02:30:25.545Z,18.78
2018-05-24T02:32:53.654Z,18.80
2018-05-24T02:35:22.153Z,18.87
2018-05-24T02:37:50.280Z,18.91
2018-05-24T02:40:18.383Z,18.82
2018-05-24T02:42:46.507Z,18.78
2018-05-24T02:45:14.655Z,18.71
2018-05-24T02:47:42.762Z,18.77
2018-05-24T02:50:10.874Z,18.73
2018-05-24T02:52:39.017Z,18.74
2018-05-24T02:55:07.119Z,18.70
2018-05-24T02:57:35.251Z,18.72
2018-05-24T03:00:03.927Z,18.66
2018-05-24T03:02:32.397Z,18.59
2018-05-24T03:05:00.985Z,18.43
2018-05-24T03:07:29.167Z,18.40
2018-05-24T03:09:57.271Z,18.27
2018-05-24T03:12:25.384Z,18.13
2018-05-24T03:14:53.532Z,18.06
2018-05-24T03:17:21.645Z,18.01
2018-05-24T03:19:49.781Z,17.88
2018-05-24T03:22:17.919Z,17.81
2018-05-24T03:24:46.014Z,17.65
2018-05-24T03:27:14.141Z,17.43
2018-05-24T03:29:42.450Z,17.53
2018-05-24T03:32:10.591Z,17.41
2018-05-24T03:34:38.687Z,17.46
2018-05-24T03:37:07.077Z,17.29
2018-05-24T03:39:35.175Z,17.40
2018-05-24T03:42:03.375Z,17.12
2018-05-24T03:44:31.759Z,17.11
2018-05-24T03:46:59.918Z,17.26
2018-05-24T03:49:28.112Z,17.29
2018-05-24T03:51:56.256Z,17.04
2018-05-24T03:54:24.374Z,17.01
2018-05-24T03:56:52.499Z,16.88
2018-05-24T04:02:49.107Z,16.89
2018-05-24T04:05:17.248Z,16.56
2018-05-24T04:07:45.728Z,16.48
2018-05-24T04:10:14.011Z,16.66
2018-05-24T04:12:42.163Z,16.85
2018-05-24T04:15:10.258Z,16.92
2018-05-24T04:17:38.387Z,16.88
2018-05-24T04:20:06.504Z,16.66
2018-05-24T04:22:34.622Z,16.66
2018-05-24T04:25:02.753Z,16.66
2018-05-24T04:27:30.888Z,16.75
2018-05-24T04:29:59.008Z,16.81
2018-05-24T04:32:27.132Z,16.77
2018-05-24T04:34:55.269Z,16.79
2018-05-24T04:37:23.407Z,16.90
2018-05-24T04:39:51.528Z,16.88
2018-05-24T04:42:19.660Z,16.97
2018-05-24T04:44:47.785Z,16.88
2018-05-24T04:47:15.895Z,16.90
2018-05-24T04:49:44.054Z,17.00
2018-05-24T04:52:12.259Z,17.05
2018-05-24T04:54:40.304Z,17.07
2018-05-24T04:57:08.441Z,17.11
2018-05-24T04:59:36.559Z,17.11
2018-05-24T05:02:04.666Z,17.05
2018-05-24T05:04:32.834Z,17.03
2018-05-24T05:07:00.971Z,17.06
2018-05-24T05:09:29.095Z,17.07
2018-05-24T05:11:57.210Z,17.06
2018-05-24T05:14:25.319Z,16.90
2018-05-24T05:16:53.542Z,16.72
2018-05-24T05:19:21.701Z,16.69
2018-05-24T05:21:49.877Z,16.75
2018-05-24T05:24:17.994Z,16.65
2018-05-24T05:26:46.129Z,16.74
2018-05-24T05:29:14.267Z,16.73
2018-05-24T05:31:42.373Z,16.90
2018-05-24T05:34:10.521Z,16.75
2018-05-24T05:36:38.637Z,16.69
2018-05-24T05:39:06.759Z,16.72
2018-05-24T05:41:34.893Z,16.78
2018-05-24T05:44:02.990Z,16.83
2018-05-24T05:46:31.117Z,16.91
2018-05-24T05:48:59.298Z,17.03
2018-05-24T05:51:27.399Z,16.98
2018-05-24T05:53:55.530Z,17.12
2018-05-24T05:56:24.656Z,17.29
2018-05-24T05:58:52.785Z,17.16
2018-05-24T06:01:20.891Z,17.13
2018-05-24T06:03:49.034Z,17.10
2018-05-24T06:06:17.138Z,17.14
2018-05-24T06:08:45.258Z,17.15
2018-05-24T06:11:13.849Z,17.14
2018-05-24T06:13:42.135Z,17.11
2018-05-24T06:16:10.229Z,17.08
2018-05-24T06:18:38.377Z,17.11
2018-05-24T06:21:06.490Z,17.09
2018-05-24T06:23:34.605Z,17.00
2018-05-24T06:26:02.723Z,17.02
2018-05-24T06:28:30.937Z,17.08
2018-05-24T06:30:58.973Z,17.03
2018-05-24T06:33:27.098Z,17.00
2018-05-24T06:35:55.378Z,16.83
2018-05-24T06:38:23.478Z,16.87
2018-05-24T06:40:51.610Z,16.87
2018-05-24T06:43:19.747Z,16.92
2018-05-24T06:45:47.846Z,17.00
2018-05-24T06:48:15.977Z,17.03
2018-05-24T06:50:44.071Z,17.17
2018-05-24T06:53:12.167Z,17.22
2018-05-24T06:55:40.489Z,17.24
2018-05-24T06:58:08.587Z,17.18
2018-05-24T07:00:36.695Z,17.24
2018-05-24T07:03:04.828Z,17.10
2018-05-24T07:05:32.970Z,17.16
2018-05-24T07:08:01.111Z,17.12
2018-05-24T07:10:29.231Z,17.16
2018-05-24T07:12:57.381Z,17.20
2018-05-24T07:15:25.510Z,17.31
2018-05-24T07:17:53.655Z,17.32
2018-05-24T07:20:21.766Z,17.33
2018-05-24T07:22:49.897Z,17.30
2018-05-24T07:25:18.038Z,17.38
2018-05-24T07:27:46.177Z,17.35
2018-05-24T07:30:14.333Z,17.37
2018-05-24T07:32:42.473Z,17.35
2018-05-24T07:35:10.584Z,17.36
2018-05-24T07:37:38.701Z,17.25
2018-05-24T07:40:06.836Z,17.33
2018-05-24T07:42:34.958Z,17.32
2018-05-24T07:45:03.129Z,17.19
2018-05-24T07:47:31.225Z,17.20
2018-05-24T07:49:59.355Z,17.23
2018-05-24T07:52:27.455Z,17.23
2018-05-24T07:54:56.156Z,17.22
2018-05-24T07:57:24.221Z,17.20
2018-05-24T07:59:52.344Z,17.29
2018-05-24T08:02:20.499Z,17.38
2018-05-24T08:04:48.628Z,17.35
2018-05-24T08:07:16.742Z,17.32
2018-05-24T08:09:45.102Z,17.40
2018-05-24T08:12:13.210Z,17.46
2018-05-24T08:14:41.415Z,17.49
2018-05-24T08:17:09.513Z,17.52
2018-05-24T08:19:37.657Z,17.62
2018-05-24T08:22:05.784Z,17.65
2018-05-24T08:24:33.924Z,17.49
2018-05-24T08:27:02.121Z,17.38
2018-05-24T08:29:30.298Z,17.42
2018-05-24T08:31:58.449Z,17.53
2018-05-24T08:34:26.560Z,17.65
2018-05-24T08:36:54.903Z,17.68
2018-05-24T08:39:23.047Z,17.57
2018-05-24T08:41:51.262Z,17.62
2018-05-24T08:44:19.341Z,17.70
2018-05-24T08:46:47.497Z,17.59
2018-05-24T08:49:15.605Z,17.61
2018-05-24T08:51:43.744Z,17.52
2018-05-24T08:54:11.893Z,17.61
2018-05-24T08:56:40.027Z,17.50
2018-05-24T08:59:08.149Z,17.42
2018-05-24T09:01:36.281Z,17.48
2018-05-24T09:04:04.462Z,17.54
2018-05-24T09:06:32.797Z,17.47
2018-05-24T09:09:00.930Z,17.47
2018-05-24T09:11:29.049Z,17.42
2018-05-24T09:13:57.163Z,17.36
2018-05-24T09:16:25.661Z,17.42
2018-05-24T09:18:53.773Z,17.46
2018-05-24T09:21:21.905Z,17.48
2018-05-24T09:23:50.053Z,17.48
2018-05-24T09:26:18.177Z,17.50
2018-05-24T09:28:46.302Z,17.54
2018-05-24T09:31:14.428Z,17.54
2018-05-24T09:33:42.556Z,17.60
2018-05-24T09:36:10.686Z,17.45
2018-05-24T09:38:39.070Z,17.55
2018-05-24T09:41:07.187Z,17.54
2018-05-24T09:43:35.321Z,17.56
2018-05-24T09:46:03.465Z,17.61
2018-05-24T09:48:31.598Z,17.73
2018-05-24T09:50:59.740Z,17.77
2018-05-24T09:53:27.881Z,17.88
2018-05-24T09:55:55.989Z,17.86
2018-05-24T09:58:24.186Z,17.90
2018-05-24T10:00:52.332Z,17.87
2018-05-24T10:03:20.465Z,17.94
2018-05-24T10:05:48.589Z,17.91
2018-05-24T10:08:16.751Z,18.04
2018-05-24T10:10:46.777Z,18.06
2018-05-24T10:13:14.923Z,18.07
2018-05-24T10:15:43.062Z,18.14
2018-05-24T10:18:11.387Z,18.19
2018-05-24T10:20:39.512Z,18.14
2018-05-24T10:23:07.657Z,18.19
2018-05-24T10:25:35.785Z,18.31
2018-05-24T10:28:03.909Z,18.33
2018-05-24T10:30:32.067Z,18.40
2018-05-24T10:33:00.151Z,18.46
2018-05-24T10:35:28.285Z,18.52
2018-05-24T10:37:56.453Z,18.65
2018-05-24T10:40:24.569Z,18.74
2018-05-24T10:42:52.708Z,18.82
2018-05-24T10:45:20.897Z,18.87
2018-05-24T10:47:49.019Z,18.95
2018-05-24T10:50:17.159Z,19.04
2018-05-24T10:52:45.282Z,19.22
2018-05-24T10:55:13.417Z,19.25
2018-05-24T10:57:41.544Z,19.27
2018-05-24T11:00:09.667Z,19.30
2018-05-24T11:02:37.818Z,19.37
2018-05-24T11:05:05.919Z,19.48
2018-05-24T11:07:34.067Z,19.54
2018-05-24T11:10:02.182Z,19.61
2018-05-24T11:12:30.315Z,19.75
2018-05-24T11:14:58.477Z,19.89
2018-05-24T11:17:26.597Z,20.00
2018-05-24T11:19:54.721Z,20.09
2018-05-24T11:22:22.875Z,20.21
2018-05-24T11:24:51.011Z,20.30
2018-05-24T11:27:19.149Z,20.42
2018-05-24T11:29:47.299Z,20.48
2018-05-24T11:32:15.407Z,20.47
2018-05-24T11:34:43.532Z,20.52
2018-05-24T11:37:11.756Z,20.54
2018-05-24T11:39:39.805Z,20.56
2018-05-24T11:42:08.172Z,20.61
2018-05-24T11:44:36.312Z,20.71
2018-05-24T11:47:04.451Z,20.74
2018-05-24T11:49:32.578Z,20.80
2018-05-24T11:52:00.835Z,20.82
2018-05-24T11:54:28.954Z,20.85
2018-05-24T11:56:57.081Z,20.88
2018-05-24T11:59:25.249Z,20.92
2018-05-24T12:01:53.419Z,21.01
2018-05-24T12:04:21.523Z,21.14
2018-05-24T12:06:49.664Z,21.36
2018-05-24T12:09:21.570Z,21.48
2018-05-24T12:11:49.707Z,21.82
2018-05-24T12:14:17.847Z,21.84
2018-05-24T12:16:45.967Z,21.75
2018-05-24T12:19:14.101Z,21.93
2018-05-24T12:21:42.228Z,21.90
2018-05-24T12:24:10.361Z,21.81
2018-05-24T12:26:38.497Z,21.75
2018-05-24T12:29:06.678Z,21.70
2018-05-24T12:31:35.008Z,21.77
2018-05-24T12:34:03.116Z,21.88
2018-05-24T12:36:31.231Z,21.97
2018-05-24T12:38:59.368Z,22.09
2018-05-24T12:41:27.523Z,22.18
2018-05-24T12:43:55.626Z,22.25
2018-05-24T12:46:23.769Z,22.29
2018-05-24T12:48:51.981Z,22.29
2018-05-24T12:51:20.020Z,22.17
2018-05-24T12:53:48.157Z,22.15
2018-05-24T12:56:16.282Z,22.37
2018-05-24T12:58:44.409Z,22.25
2018-05-24T13:01:12.555Z,22.21
2018-05-24T13:03:40.675Z,22.32
2018-05-24T13:06:08.803Z,22.41
2018-05-24T13:08:36.925Z,22.42
2018-05-24T13:11:05.160Z,22.29
2018-05-24T13:13:33.231Z,22.24
2018-05-24T13:16:01.369Z,22.21
2018-05-24T13:18:29.463Z,22.23
2018-05-24T13:20:57.588Z,22.32
2018-05-24T13:23:25.717Z,22.39
2018-05-24T13:25:53.833Z,22.41
2018-05-24T13:28:21.964Z,22.55
2018-05-24T13:30:50.099Z,22.63
2018-05-24T13:33:21.229Z,22.82
2018-05-24T13:35:49.331Z,22.91
2018-05-24T13:38:17.453Z,22.77
2018-05-24T13:40:45.580Z,22.84
2018-05-24T13:43:13.788Z,22.84
2018-05-24T13:45:41.818Z,22.53
2018-05-24T13:48:09.955Z,22.22
2018-05-24T13:50:38.079Z,22.20
2018-05-24T13:53:06.200Z,22.34
2018-05-24T13:55:34.337Z,22.42
2018-05-24T13:58:02.472Z,22.56
2018-05-24T14:00:30.599Z,22.64
2018-05-24T14:02:58.702Z,22.52
2018-05-24T14:05:26.807Z,22.48
2018-05-24T14:07:54.958Z,22.51
2018-05-24T14:10:23.111Z,22.52
2018-05-24T14:12:51.201Z,22.60
2018-05-24T14:15:19.342Z,22.69
2018-05-24T14:17:47.477Z,22.61
2018-05-24T14:20:15.581Z,22.58
2018-05-24T14:22:43.749Z,22.49
2018-05-24T14:25:11.887Z,22.43
2018-05-24T14:27:40.023Z,22.27
2018-05-24T14:30:08.172Z,22.28
2018-05-24T14:32:36.270Z,22.32
2018-05-24T14:35:04.388Z,22.31
2018-05-24T14:37:32.685Z,22.23
2018-05-24T14:40:00.817Z,22.13
2018-05-24T14:42:32.256Z,22.09
2018-05-24T14:45:00.434Z,22.00
2018-05-24T14:47:28.575Z,21.96
2018-05-24T14:49:56.687Z,21.90
2018-05-24T14:52:24.813Z,21.77
2018-05-24T14:54:52.930Z,21.70
2018-05-24T14:57:21.084Z,21.69
2018-05-24T14:59:49.228Z,21.71
2018-05-24T15:02:17.344Z,21.69
2018-05-24T15:04:45.487Z,21.65
2018-05-24T15:07:13.604Z,21.57
2018-05-24T15:09:41.748Z,21.47
2018-05-24T15:12:09.928Z,21.37
2018-05-24T15:14:38.061Z,21.29
2018-05-24T15:17:06.162Z,21.26
2018-05-24T15:19:34.250Z,21.25
2018-05-24T15:22:05.583Z,21.12
2018-05-24T15:24:33.708Z,21.18
2018-05-24T15:27:01.822Z,21.11
2018-05-24T15:29:29.949Z,21.06
2018-05-24T15:31:58.073Z,21.12
2018-05-24T15:34:26.170Z,21.18
2018-05-24T15:36:54.302Z,21.20
2018-05-24T15:39:22.418Z,21.19
2018-05-24T15:41:50.537Z,21.12
2018-05-24T15:44:18.651Z,21.08
2018-05-24T15:46:46.778Z,21.08
2018-05-24T15:49:14.922Z,21.08
2018-05-24T15:51:43.052Z,21.10
2018-05-24T15:54:11.178Z,21.14
2018-05-24T15:56:39.341Z,21.18
2018-05-24T15:59:07.467Z,21.20
2018-05-24T16:01:35.571Z,21.25
2018-05-24T16:04:03.733Z,21.25
2018-05-24T16:06:31.849Z,21.23
2018-05-24T16:08:59.993Z,21.26
2018-05-24T16:11:28.136Z,21.25
2018-05-24T16:13:56.272Z,21.30
2018-05-24T16:16:24.389Z,21.35
2018-05-24T16:18:56.245Z,21.42
2018-05-24T16:21:24.393Z,21.55
2018-05-24T16:23:52.557Z,21.64
2018-05-24T16:26:20.691Z,21.63
2018-05-24T16:28:48.815Z,21.60
2018-05-24T16:31:16.942Z,21.65
2018-05-24T16:33:45.067Z,21.75
2018-05-24T16:36:13.195Z,21.74
2018-05-24T16:38:41.299Z,21.76
2018-05-24T16:41:11.322Z,21.79
2018-05-24T16:43:39.483Z,21.79
2018-05-24T16:46:07.605Z,21.74
2018-05-24T16:48:35.909Z,21.63
2018-05-24T16:51:04.025Z,21.58
2018-05-24T16:53:32.142Z,21.61
2018-05-24T16:56:00.254Z,21.61
2018-05-24T16:58:28.399Z,21.60
2018-05-24T17:00:56.543Z,21.56
2018-05-24T17:03:24.665Z,21.45
2018-05-24T17:05:52.800Z,21.42
2018-05-24T17:08:20.957Z,21.36
2018-05-24T17:10:49.088Z,21.37
2018-05-24T17:13:17.224Z,21.36
2018-05-24T17:15:45.370Z,21.33
2018-05-24T17:18:13.498Z,21.36
2018-05-24T17:20:41.642Z,21.36
2018-05-24T17:23:09.780Z,21.33
2018-05-24T17:25:37.905Z,21.36
2018-05-24T17:28:06.149Z,21.28
2018-05-24T17:30:34.296Z,21.21
2018-05-24T17:33:02.409Z,21.18
2018-05-24T17:35:30.550Z,21.17
2018-05-24T17:37:58.663Z,21.19
2018-05-24T17:40:26.817Z,21.18
2018-05-24T17:42:54.940Z,21.17
2018-05-24T17:45:23.078Z,21.13
2018-05-24T17:47:51.215Z,21.14
2018-05-24T17:50:19.342Z,21.14
2018-05-24T17:52:47.485Z,21.15
2018-05-24T17:55:15.631Z,21.17
2018-05-24T17:57:43.762Z,21.16
2018-05-24T18:00:11.893Z,21.15
2018-05-24T18:02:40.032Z,21.07
2018-05-24T18:05:08.174Z,21.07
2018-05-24T18:07:36.305Z,21.03
2018-05-24T18:10:07.485Z,21.00
2018-05-24T18:12:35.630Z,20.90
2018-05-24T18:15:03.748Z,20.87
2018-05-24T18:17:32.101Z,20.82
2018-05-24T18:20:00.247Z,20.76
2018-05-24T18:22:28.383Z,20.68
2018-05-24T18:24:56.518Z,20.69
2018-05-24T18:27:24.652Z,20.61
2018-05-24T18:29:52.786Z,20.64
2018-05-24T18:32:20.931Z,20.65
2018-05-24T18:34:49.046Z,20.55
2018-05-24T18:37:17.175Z,20.59
2018-05-24T18:39:45.305Z,20.56
2018-05-24T18:42:14.622Z,20.53
2018-05-24T18:44:42.766Z,20.54
2018-05-24T18:47:10.888Z,20.56
2018-05-24T18:49:39.022Z,20.55
2018-05-24T18:52:07.149Z,20.54
2018-05-24T18:54:36.161Z,20.53
2018-05-24T18:57:04.660Z,20.48
2018-05-24T18:59:32.803Z,20.54
2018-05-24T19:02:00.977Z,20.50
2018-05-24T19:04:29.096Z,20.54
2018-05-24T19:06:57.244Z,20.50
2018-05-24T19:09:25.373Z,20.49
2018-05-24T19:11:53.505Z,20.46
2018-05-24T19:14:21.649Z,20.48
2018-05-24T19:16:49.791Z,20.41
2018-05-24T19:19:17.950Z,20.38
2018-05-24T19:21:46.080Z,20.38
2018-05-24T19:24:14.214Z,20.40
2018-05-24T19:26:42.601Z,20.37
2018-05-24T19:29:10.742Z,20.40
2018-05-24T19:31:38.867Z,20.43
2018-05-24T19:34:07.044Z,20.43
2018-05-24T19:36:35.147Z,20.43
2018-05-24T19:39:03.301Z,20.36
2018-05-24T19:41:31.437Z,20.32
2018-05-24T19:43:59.568Z,20.27
2018-05-24T19:46:27.688Z,20.26
2018-05-24T19:48:55.951Z,20.30
2018-05-24T19:51:24.068Z,20.22
2018-05-24T19:53:52.324Z,20.21
2018-05-24T19:56:20.445Z,20.23
2018-05-24T19:58:48.570Z,20.19
2018-05-24T20:01:16.677Z,20.20
2018-05-24T20:03:44.828Z,20.20
2018-05-24T20:06:12.957Z,20.18
2018-05-24T20:08:41.307Z,20.17
2018-05-24T20:11:09.432Z,20.16
2018-05-24T20:13:37.570Z,20.18
2018-05-24T20:16:05.697Z,20.17
2018-05-24T20:18:33.832Z,20.19
2018-05-24T20:21:01.947Z,20.12
2018-05-24T20:23:30.050Z,20.16
2018-05-24T20:25:58.262Z,20.17
2018-05-24T20:28:26.432Z,20.11
2018-05-24T20:30:54.664Z,20.12
2018-05-24T20:33:22.756Z,20.11
2018-05-24T20:35:50.885Z,20.16
2018-05-24T20:38:19.150Z,20.11
2018-05-24T20:40:47.300Z,20.12
2018-05-24T20:43:15.466Z,20.06
2018-05-24T20:45:43.621Z,20.07
2018-05-24T20:48:11.827Z,20.08
2018-05-24T20:50:39.953Z,20.03
2018-05-24T20:53:08.096Z,20.03
2018-05-24T20:55:36.204Z,20.05
2018-05-24T20:58:04.318Z,20.03
2018-05-24T21:00:32.456Z,20.09
2018-05-24T21:03:00.598Z,20.08
2018-05-24T21:05:28.743Z,20.12
2018-05-24T21:07:56.865Z,20.09
2018-05-24T21:10:24.988Z,20.07
2018-05-24T21:12:53.107Z,20.03
2018-05-24T21:15:21.229Z,20.00
2018-05-24T21:17:49.340Z,20.03
2018-05-24T21:20:17.475Z,20.03
2018-05-24T21:22:45.609Z,20.04
2018-05-24T21:25:13.749Z,20.00
2018-05-24T21:27:41.865Z,19.93
2018-05-24T21:30:10.034Z,19.88
2018-05-24T21:32:38.160Z,19.88
2018-05-24T21:35:06.404Z,19.87
2018-05-24T21:37:34.555Z,19.86
2018-05-24T21:40:02.663Z,19.83
2018-05-24T21:42:30.871Z,19.81
2018-05-24T21:44:59.052Z,19.72
2018-05-24T21:47:27.197Z,19.71
2018-05-24T21:49:55.347Z,19.75
2018-05-24T21:52:23.495Z,19.75
2018-05-24T21:54:51.607Z,19.68
2018-05-24T21:57:19.755Z,19.72
2018-05-24T21:59:47.867Z,19.69
2018-05-24T22:02:16.016Z,19.65
2018-05-24T22:04:44.145Z,19.64
2018-05-24T22:07:12.291Z,19.63
2018-05-24T22:09:40.421Z,19.62
2018-05-24T22:12:08.538Z,19.60
2018-05-24T22:14:36.683Z,19.57
2018-05-24T22:17:04.860Z,19.61
2018-05-24T22:19:32.967Z,19.62
2018-05-24T22:22:01.092Z,19.54
2018-05-24T22:24:29.221Z,19.53
2018-05-24T22:26:57.326Z,19.54
2018-05-24T22:29:25.580Z,19.55
2018-05-24T22:31:53.605Z,19.56
2018-05-24T22:34:21.747Z,19.51
2018-05-24T22:36:50.078Z,19.47
2018-05-24T22:39:18.201Z,19.47
2018-05-24T22:41:46.315Z,19.44
2018-05-24T22:44:14.451Z,19.36
2018-05-24T22:46:42.559Z,19.33
2018-05-24T22:49:10.685Z,19.31
2018-05-24T22:51:38.809Z,19.36
2018-05-24T22:54:06.957Z,19.35
2018-05-24T22:56:35.109Z,19.28
2018-05-24T22:59:03.270Z,19.24
2018-05-24T23:01:31.396Z,19.25
2018-05-24T23:03:59.513Z,19.23
2018-05-24T23:06:27.640Z,19.10
2018-05-24T23:08:55.758Z,19.16
2018-05-24T23:11:24.616Z,19.18
2018-05-24T23:13:52.732Z,19.13
2018-05-24T23:16:20.846Z,19.14
2018-05-24T23:18:48.981Z,19.14
2018-05-24T23:21:17.102Z,19.14
2018-05-24T23:23:45.214Z,19.08
2018-05-24T23:26:13.327Z,19.00
2018-05-24T23:28:41.468Z,19.08
2018-05-24T23:31:09.579Z,19.02
2018-05-24T23:33:37.743Z,19.04
2018-05-24T23:36:05.862Z,19.05
2018-05-24T23:38:33.989Z,19.02
2018-05-24T23:41:02.133Z,19.01
2018-05-24T23:43:30.250Z,19.01
2018-05-24T23:45:58.405Z,19.00
2018-05-24T23:48:26.549Z,19.01
2018-05-24T23:50:54.679Z,18.99
2018-05-24T23:53:22.974Z,18.98
2018-05-24T23:55:51.097Z,18.90
2018-05-24T23:58:19.253Z,18.91
